createdAt,value
2022-08-31T00:01:19.538Z,7.70
2022-08-31T00:02:40.112Z,8.13
2022-08-31T00:04:03.089Z,8.20
2022-08-31T00:05:06.274Z,8.45
2022-08-31T00:06:09.156Z,7.18
2022-08-31T00:07:11.073Z,9.30
2022-08-31T00:08:14.047Z,8.55
2022-08-31T00:09:16.068Z,8.45
2022-08-31T00:10:20.004Z,8.60
2022-08-31T00:11:28.677Z,7.40
2022-08-31T00:12:32.078Z,9.10
2022-08-31T00:13:33.938Z,9.10
2022-08-31T00:14:38.357Z,9.25
2022-08-31T00:15:41.853Z,8.40
2022-08-31T00:16:47.234Z,8.20
2022-08-31T00:17:51.241Z,7.65
2022-08-31T00:18:53.571Z,7.70
2022-08-31T00:19:56.512Z,8.18
2022-08-31T00:20:58.444Z,7.63
2022-08-31T00:22:01.309Z,7.13
2022-08-31T00:23:04.208Z,7.88
2022-08-31T00:24:07.323Z,8.93
2022-08-31T00:25:11.673Z,8.18
2022-08-31T00:26:14.649Z,7.63
2022-08-31T00:27:16.531Z,7.60
2022-08-31T00:28:20.279Z,8.32
2022-08-31T00:29:23.214Z,7.28
2022-08-31T00:30:26.516Z,8.25
2022-08-31T00:31:28.718Z,9.32
2022-08-31T00:32:33.103Z,8.40
2022-08-31T00:33:36.747Z,8.65
2022-08-31T00:34:39.739Z,8.85
2022-08-31T00:35:46.479Z,8.63
2022-08-31T00:36:49.545Z,8.68
2022-08-31T00:37:51.507Z,9.23
2022-08-31T00:38:56.785Z,7.95
2022-08-31T00:39:58.892Z,7.78
2022-08-31T00:41:03.890Z,10.02
2022-08-31T00:42:07.468Z,9.40
2022-08-31T00:43:09.527Z,8.15
2022-08-31T00:44:12.622Z,8.48
2022-08-31T00:45:15.118Z,8.63
2022-08-31T00:46:21.974Z,8.20
2022-08-31T00:47:23.962Z,9.10
2022-08-31T00:48:28.343Z,9.10
2022-08-31T00:49:33.039Z,8.93
2022-08-31T00:50:36.009Z,8.75
2022-08-31T00:51:42.100Z,9.18
2022-08-31T00:52:49.383Z,11.27
2022-08-31T00:53:52.222Z,9.27
2022-08-31T00:55:00.078Z,7.85
2022-08-31T00:56:02.555Z,9.40
2022-08-31T00:57:08.039Z,8.98
2022-08-31T00:58:12.342Z,8.95
2022-08-31T00:59:17.629Z,8.63
2022-08-31T01:00:24.250Z,9.10
2022-08-31T01:01:27.936Z,8.63
2022-08-31T01:02:29.943Z,9.13
2022-08-31T01:03:34.709Z,8.80
2022-08-31T01:04:37.366Z,7.50
2022-08-31T01:05:41.880Z,8.52
2022-08-31T01:06:44.635Z,8.15
2022-08-31T01:07:49.050Z,8.82
2022-08-31T01:08:51.958Z,7.30
2022-08-31T01:09:56.316Z,9.23
2022-08-31T01:10:59.568Z,7.25
2022-08-31T01:12:03.342Z,8.48
2022-08-31T01:13:06.058Z,8.55
2022-08-31T01:14:10.958Z,7.63
2022-08-31T01:15:15.525Z,8.88
2022-08-31T01:16:23.453Z,8.10
2022-08-31T01:17:25.969Z,8.98
2022-08-31T01:18:30.338Z,8.68
2022-08-31T01:19:38.423Z,7.68
2022-08-31T01:20:50.122Z,7.93
2022-08-31T01:22:01.099Z,7.75
2022-08-31T01:23:11.271Z,7.50
2022-08-31T01:24:15.777Z,9.00
2022-08-31T01:25:19.065Z,8.65
2022-08-31T01:26:27.644Z,8.15
2022-08-31T01:27:33.463Z,11.75
2022-08-31T01:28:36.469Z,8.07
2022-08-31T01:29:39.400Z,9.07
2022-08-31T01:30:42.737Z,8.60
2022-08-31T01:31:48.198Z,9.00
2022-08-31T01:32:50.208Z,8.27
2022-08-31T01:33:55.629Z,8.38
2022-08-31T01:34:59.590Z,9.35
2022-08-31T01:36:04.094Z,8.10
2022-08-31T01:37:07.152Z,8.93
2022-08-31T01:38:13.264Z,9.27
2022-08-31T01:39:15.205Z,8.75
2022-08-31T01:40:18.459Z,9.15
2022-08-31T01:41:20.575Z,8.18
2022-08-31T01:42:23.722Z,7.50
2022-08-31T01:43:36.415Z,9.25
2022-08-31T01:44:40.229Z,8.18
2022-08-31T01:45:42.213Z,8.52
2022-08-31T01:46:46.490Z,9.45
2022-08-31T01:47:48.619Z,8.10
2022-08-31T01:48:52.374Z,8.40
2022-08-31T01:49:57.476Z,8.25
2022-08-31T01:51:00.619Z,12.77
2022-08-31T01:52:04.836Z,7.88
2022-08-31T01:53:11.105Z,7.63
2022-08-31T01:54:13.545Z,8.00
2022-08-31T01:55:16.551Z,8.10
2022-08-31T01:56:21.835Z,8.20
2022-08-31T01:57:34.337Z,8.38
2022-08-31T01:58:58.149Z,8.23
2022-08-31T02:00:18.736Z,8.63
2022-08-31T02:01:32.760Z,8.15
2022-08-31T02:02:36.063Z,7.65
2022-08-31T02:03:39.085Z,9.20
2022-08-31T02:04:41.040Z,8.18
2022-08-31T02:05:43.864Z,8.10
2022-08-31T02:06:48.219Z,9.43
2022-08-31T02:07:52.258Z,8.27
2022-08-31T02:08:55.540Z,8.55
2022-08-31T02:09:58.543Z,8.25
2022-08-31T02:11:00.599Z,8.60
2022-08-31T02:12:04.389Z,8.75
2022-08-31T02:13:09.559Z,8.07
2022-08-31T02:14:13.563Z,8.52
2022-08-31T02:15:16.069Z,8.50
2022-08-31T02:16:19.394Z,8.77
2022-08-31T02:17:21.414Z,9.00
2022-08-31T02:18:24.382Z,8.63
2022-08-31T02:19:26.363Z,8.55
2022-08-31T02:20:31.949Z,9.45
2022-08-31T02:21:36.823Z,9.30
2022-08-31T02:22:40.194Z,8.85
2022-08-31T02:23:44.455Z,8.82
2022-08-31T02:24:48.969Z,8.43
2022-08-31T02:25:51.965Z,8.85
2022-08-31T02:26:54.974Z,7.72
2022-08-31T02:27:57.029Z,8.43
2022-08-31T02:29:00.030Z,7.72
2022-08-31T02:30:02.712Z,7.80
2022-08-31T02:31:07.015Z,8.05
2022-08-31T02:32:21.208Z,8.10
2022-08-31T02:33:25.380Z,8.70
2022-08-31T02:34:28.086Z,9.68
2022-08-31T02:35:31.047Z,9.15
2022-08-31T02:36:35.837Z,10.43
2022-08-31T02:37:41.372Z,9.48
2022-08-31T02:38:44.011Z,8.38
2022-08-31T02:39:48.736Z,8.02
2022-08-31T02:40:55.044Z,11.55
2022-08-31T02:41:59.342Z,10.10
2022-08-31T02:43:01.349Z,8.30
2022-08-31T02:44:05.988Z,8.05
2022-08-31T02:45:09.071Z,7.45
2022-08-31T02:46:12.556Z,8.70
2022-08-31T02:47:40.421Z,8.27
2022-08-31T02:49:05.448Z,8.50
2022-08-31T02:50:08.373Z,7.68
2022-08-31T02:51:13.097Z,9.00
2022-08-31T02:52:15.192Z,8.63
2022-08-31T02:53:20.197Z,8.80
2022-08-31T02:54:22.339Z,9.25
2022-08-31T02:55:28.526Z,8.85
2022-08-31T02:56:30.495Z,9.43
2022-08-31T02:57:33.662Z,9.35
2022-08-31T02:58:36.972Z,8.93
2022-08-31T02:59:39.926Z,8.30
2022-08-31T03:00:46.669Z,7.95
2022-08-31T03:01:52.930Z,9.45
2022-08-31T03:02:55.185Z,8.95
2022-08-31T03:04:00.790Z,7.85
2022-08-31T03:05:04.060Z,9.07
2022-08-31T03:06:07.403Z,8.30
2022-08-31T03:07:09.373Z,9.15
2022-08-31T03:08:12.346Z,8.32
2022-08-31T03:09:15.664Z,10.05
2022-08-31T03:10:21.091Z,9.18
2022-08-31T03:11:25.485Z,8.30
2022-08-31T03:12:30.098Z,8.73
2022-08-31T03:13:31.979Z,8.63
2022-08-31T03:14:34.976Z,9.38
2022-08-31T03:15:38.168Z,9.57
2022-08-31T03:16:42.630Z,9.25
2022-08-31T03:17:44.612Z,8.95
2022-08-31T03:18:48.744Z,9.10
2022-08-31T03:19:50.830Z,8.68
2022-08-31T03:20:53.707Z,8.35
2022-08-31T03:21:56.641Z,8.18
2022-08-31T03:22:59.404Z,8.13
2022-08-31T03:24:03.762Z,7.97
2022-08-31T03:25:07.447Z,8.10
2022-08-31T03:26:10.506Z,8.40
2022-08-31T03:27:14.024Z,7.43
2022-08-31T03:28:17.101Z,8.07
2022-08-31T03:29:33.963Z,8.13
2022-08-31T03:30:50.601Z,8.27
2022-08-31T03:31:52.722Z,8.13
2022-08-31T03:32:59.299Z,8.23
2022-08-31T03:34:06.424Z,8.00
2022-08-31T03:35:10.132Z,7.93
2022-08-31T03:36:15.826Z,9.52
2022-08-31T03:37:17.829Z,8.10
2022-08-31T03:38:21.392Z,9.15
2022-08-31T03:39:24.316Z,9.25
2022-08-31T03:40:27.926Z,8.00
2022-08-31T03:41:30.042Z,9.45
2022-08-31T03:42:35.423Z,8.80
2022-08-31T03:43:38.199Z,10.43
2022-08-31T03:44:41.232Z,8.73
2022-08-31T03:45:51.229Z,9.52
2022-08-31T03:46:55.350Z,8.65
2022-08-31T03:47:59.605Z,9.45
2022-08-31T03:49:03.799Z,9.35
2022-08-31T03:50:10.580Z,8.90
2022-08-31T03:51:26.882Z,8.85
2022-08-31T03:52:29.062Z,8.57
2022-08-31T03:53:45.738Z,7.30
2022-08-31T03:54:53.249Z,8.30
2022-08-31T03:56:01.740Z,9.65
2022-08-31T03:57:07.179Z,8.07
2022-08-31T03:58:13.115Z,9.35
2022-08-31T03:59:17.007Z,8.48
2022-08-31T04:00:39.693Z,9.48
2022-08-31T04:01:52.511Z,8.20
2022-08-31T04:03:14.767Z,8.30
2022-08-31T04:04:43.783Z,7.45
2022-08-31T04:06:14.056Z,8.55
2022-08-31T04:07:42.518Z,9.50
2022-08-31T04:09:04.761Z,8.52
2022-08-31T04:10:44.611Z,8.88
2022-08-31T04:12:10.677Z,8.70
2022-08-31T04:13:35.565Z,8.75
2022-08-31T04:14:56.915Z,9.02
2022-08-31T04:16:27.838Z,7.40
2022-08-31T04:17:48.507Z,7.22
2022-08-31T04:19:17.547Z,8.35
2022-08-31T04:20:35.135Z,8.55
2022-08-31T04:21:41.173Z,8.23
2022-08-31T04:22:47.083Z,7.20
2022-08-31T04:24:06.070Z,7.40
2022-08-31T04:25:10.275Z,8.38
2022-08-31T04:26:17.810Z,7.68
2022-08-31T04:27:19.803Z,8.75
2022-08-31T04:28:23.391Z,7.93
2022-08-31T04:29:26.872Z,8.52
2022-08-31T04:30:29.899Z,10.77
2022-08-31T04:31:32.197Z,9.57
2022-08-31T04:32:35.836Z,8.75
2022-08-31T04:33:39.466Z,8.52
2022-08-31T04:34:42.519Z,8.82
2022-08-31T04:35:44.758Z,8.10
2022-08-31T04:36:48.161Z,8.57
2022-08-31T04:37:51.396Z,8.48
2022-08-31T04:38:58.461Z,8.60
2022-08-31T04:40:01.484Z,9.77
2022-08-31T04:41:07.102Z,8.40
2022-08-31T04:42:11.707Z,8.80
2022-08-31T04:43:17.372Z,8.90
2022-08-31T04:44:20.377Z,8.00
2022-08-31T04:45:33.055Z,8.77
2022-08-31T04:46:36.903Z,8.18
2022-08-31T04:47:41.731Z,8.85
2022-08-31T04:48:43.764Z,9.48
2022-08-31T04:49:46.770Z,8.70
2022-08-31T04:50:50.645Z,6.57
2022-08-31T04:51:53.575Z,9.63
2022-08-31T04:53:03.199Z,9.88
2022-08-31T04:54:09.699Z,9.10
2022-08-31T04:55:12.202Z,8.05
2022-08-31T04:56:17.569Z,9.40
2022-08-31T04:57:19.628Z,8.68
2022-08-31T04:58:23.680Z,9.02
2022-08-31T04:59:27.521Z,8.90
2022-08-31T05:00:55.124Z,8.15
2022-08-31T05:02:20.847Z,8.70
2022-08-31T05:03:28.854Z,9.80
2022-08-31T05:04:32.205Z,9.10
2022-08-31T05:05:38.187Z,8.32
2022-08-31T05:06:44.054Z,7.57
2022-08-31T05:07:46.068Z,8.70
2022-08-31T05:08:49.520Z,8.50
2022-08-31T05:09:52.756Z,8.75
2022-08-31T05:10:55.988Z,8.15
2022-08-31T05:11:58.251Z,8.45
2022-08-31T05:13:02.392Z,7.78
2022-08-31T05:14:07.918Z,8.15
2022-08-31T05:15:12.572Z,8.43
2022-08-31T05:16:17.923Z,8.05
2022-08-31T05:17:20.966Z,8.45
2022-08-31T05:18:23.037Z,8.38
2022-08-31T05:19:41.028Z,8.35
2022-08-31T05:20:43.500Z,8.30
2022-08-31T05:21:47.785Z,9.02
2022-08-31T05:22:50.434Z,9.75
2022-08-31T05:23:53.462Z,8.88
2022-08-31T05:24:56.440Z,7.72
2022-08-31T05:25:58.499Z,7.88
2022-08-31T05:27:01.652Z,9.07
2022-08-31T05:28:05.747Z,9.07
2022-08-31T05:29:10.252Z,8.45
2022-08-31T05:30:13.855Z,8.27
2022-08-31T05:31:25.241Z,7.60
2022-08-31T05:32:29.391Z,7.90
2022-08-31T05:33:33.929Z,7.43
2022-08-31T05:34:39.308Z,8.05
2022-08-31T05:35:41.239Z,10.52
2022-08-31T05:36:46.049Z,8.13
2022-08-31T05:37:50.461Z,8.73
2022-08-31T05:38:58.975Z,7.97
2022-08-31T05:40:04.970Z,7.90
2022-08-31T05:41:08.332Z,8.75
2022-08-31T05:42:15.258Z,8.40
2022-08-31T05:43:18.409Z,8.25
2022-08-31T05:44:23.664Z,8.23
2022-08-31T05:45:31.468Z,8.52
2022-08-31T05:46:36.132Z,8.02
2022-08-31T05:47:40.079Z,9.05
2022-08-31T05:48:49.130Z,8.93
2022-08-31T05:49:51.780Z,8.55
2022-08-31T05:51:02.078Z,8.75
2022-08-31T05:52:05.567Z,8.93
2022-08-31T05:53:10.206Z,9.50
2022-08-31T05:54:14.715Z,8.90
2022-08-31T05:55:17.358Z,8.40
2022-08-31T05:56:23.427Z,8.60
2022-08-31T05:57:28.453Z,8.77
2022-08-31T05:58:32.865Z,8.65
2022-08-31T05:59:36.348Z,8.38
2022-08-31T06:00:39.502Z,9.82
2022-08-31T06:02:03.054Z,8.43
2022-08-31T06:03:08.521Z,8.65
2022-08-31T06:04:12.044Z,8.85
2022-08-31T06:05:14.341Z,8.40
2022-08-31T06:06:19.592Z,7.97
2022-08-31T06:07:23.663Z,8.73
2022-08-31T06:08:33.757Z,8.27
2022-08-31T06:09:38.469Z,10.05
2022-08-31T06:10:43.921Z,10.27
2022-08-31T06:11:47.505Z,11.35
2022-08-31T06:12:52.116Z,9.18
2022-08-31T06:13:57.904Z,8.82
2022-08-31T06:15:00.523Z,10.82
2022-08-31T06:16:04.856Z,9.50
2022-08-31T06:17:09.130Z,8.82
2022-08-31T06:18:11.231Z,8.80
2022-08-31T06:19:15.195Z,9.02
2022-08-31T06:20:18.388Z,11.52
2022-08-31T06:21:24.714Z,9.52
2022-08-31T06:22:27.308Z,8.90
2022-08-31T06:23:32.755Z,9.32
2022-08-31T06:24:34.866Z,8.45
2022-08-31T06:25:37.866Z,8.95
2022-08-31T06:26:40.099Z,8.75
2022-08-31T06:27:52.969Z,10.05
2022-08-31T06:29:00.402Z,8.57
2022-08-31T06:30:06.926Z,7.95
2022-08-31T06:31:16.070Z,10.50
2022-08-31T06:32:21.967Z,9.95
2022-08-31T06:33:32.421Z,9.20
2022-08-31T06:34:47.433Z,8.30
2022-08-31T06:36:21.872Z,8.57
2022-08-31T06:37:47.695Z,9.27
2022-08-31T06:39:24.069Z,8.82
2022-08-31T06:40:48.120Z,8.00
2022-08-31T06:42:14.299Z,8.60
2022-08-31T06:43:47.875Z,10.63
2022-08-31T06:45:12.514Z,8.50
2022-08-31T06:46:24.424Z,9.27
2022-08-31T06:47:49.093Z,8.40
2022-08-31T06:48:54.612Z,8.55
2022-08-31T06:49:58.263Z,8.35
2022-08-31T06:51:00.715Z,8.52
2022-08-31T06:52:04.801Z,9.57
2022-08-31T06:53:09.690Z,9.10
2022-08-31T06:54:31.329Z,9.20
2022-08-31T06:55:53.124Z,8.52
2022-08-31T06:57:24.912Z,8.52
2022-08-31T06:58:47.175Z,8.48
2022-08-31T07:00:16.036Z,9.05
2022-08-31T07:01:37.629Z,8.98
2022-08-31T07:02:57.191Z,8.55
2022-08-31T07:04:03.661Z,9.00
2022-08-31T07:05:06.670Z,8.18
2022-08-31T07:06:15.372Z,10.35
2022-08-31T07:07:18.595Z,9.30
2022-08-31T07:08:24.405Z,10.13
2022-08-31T07:09:28.333Z,9.65
2022-08-31T07:10:34.344Z,9.10
2022-08-31T07:11:44.266Z,9.30
2022-08-31T07:12:48.704Z,9.50
2022-08-31T07:13:53.257Z,10.05
2022-08-31T07:14:57.232Z,9.55
2022-08-31T07:16:05.225Z,8.73
2022-08-31T07:17:09.156Z,9.15
2022-08-31T07:18:20.017Z,9.02
2022-08-31T07:19:24.011Z,10.13
2022-08-31T07:20:27.404Z,9.07
2022-08-31T07:21:33.599Z,8.68
2022-08-31T07:22:36.858Z,9.32
2022-08-31T07:24:14.701Z,8.98
2022-08-31T07:25:19.263Z,9.90
2022-08-31T07:26:30.163Z,8.35
2022-08-31T07:27:37.419Z,9.00
2022-08-31T07:28:43.307Z,9.48
2022-08-31T07:29:47.919Z,9.70
2022-08-31T07:30:51.606Z,10.30
2022-08-31T07:31:55.739Z,8.85
2022-08-31T07:32:58.957Z,9.00
2022-08-31T07:34:05.307Z,9.75
2022-08-31T07:35:17.630Z,8.98
2022-08-31T07:36:54.221Z,10.57
2022-08-31T07:38:23.217Z,8.07
2022-08-31T07:39:46.731Z,8.77
2022-08-31T07:41:08.189Z,9.63
2022-08-31T07:42:11.485Z,9.68
2022-08-31T07:43:14.706Z,9.48
2022-08-31T07:44:19.013Z,9.45
2022-08-31T07:45:25.803Z,9.48
2022-08-31T07:46:32.275Z,9.30
2022-08-31T07:47:46.011Z,8.98
2022-08-31T07:48:50.733Z,16.58
2022-08-31T07:50:13.693Z,8.57
2022-08-31T07:51:43.397Z,9.27
2022-08-31T07:53:12.678Z,8.57
2022-08-31T07:54:35.616Z,8.68
2022-08-31T07:55:50.818Z,9.05
2022-08-31T07:57:13.697Z,10.40
2022-08-31T07:58:17.322Z,9.75
2022-08-31T07:59:23.516Z,10.52
2022-08-31T08:00:30.034Z,9.38
2022-08-31T08:01:35.981Z,8.75
2022-08-31T08:02:41.632Z,9.82
2022-08-31T08:03:44.773Z,9.55
2022-08-31T08:05:28.970Z,8.98
2022-08-31T08:06:50.785Z,8.15
2022-08-31T08:08:15.767Z,7.82
2022-08-31T08:09:30.876Z,9.38
2022-08-31T08:10:53.549Z,9.30
2022-08-31T08:12:15.305Z,9.75
2022-08-31T08:13:33.059Z,10.00
2022-08-31T08:14:43.573Z,8.88
2022-08-31T08:16:08.431Z,9.38
2022-08-31T08:17:30.068Z,9.85
2022-08-31T08:18:59.472Z,8.10
2022-08-31T08:20:04.388Z,9.68
2022-08-31T08:21:09.490Z,9.43
2022-08-31T08:22:11.708Z,9.77
2022-08-31T08:23:35.413Z,12.88
2022-08-31T08:25:09.473Z,9.00
2022-08-31T08:26:21.773Z,8.02
2022-08-31T08:27:48.353Z,10.15
2022-08-31T08:29:03.296Z,9.52
2022-08-31T08:30:07.138Z,9.95
2022-08-31T08:31:15.274Z,10.15
2022-08-31T08:32:18.958Z,15.15
2022-08-31T08:33:21.838Z,9.20
2022-08-31T08:34:31.059Z,9.50
2022-08-31T08:35:36.010Z,9.82
2022-08-31T08:36:40.923Z,9.20
2022-08-31T08:37:58.488Z,13.07
2022-08-31T08:39:06.919Z,9.65
2022-08-31T08:40:14.386Z,11.40
2022-08-31T08:41:23.212Z,9.02
2022-08-31T08:42:26.686Z,9.32
2022-08-31T08:43:32.961Z,11.75
2022-08-31T08:44:37.990Z,8.90
2022-08-31T08:45:43.209Z,7.53
2022-08-31T08:46:48.978Z,9.00
2022-08-31T08:47:54.495Z,9.27
2022-08-31T08:49:00.422Z,8.68
2022-08-31T08:50:07.274Z,8.57
2022-08-31T08:51:17.350Z,13.40
2022-08-31T08:52:41.637Z,9.40
2022-08-31T08:53:46.948Z,8.80
2022-08-31T08:55:06.300Z,9.13
2022-08-31T08:56:31.864Z,9.43
2022-08-31T08:57:35.609Z,9.80
2022-08-31T08:58:42.732Z,11.00
2022-08-31T08:59:47.938Z,10.60
2022-08-31T09:00:51.892Z,10.00
2022-08-31T09:01:58.127Z,10.40
2022-08-31T09:03:07.793Z,10.38
2022-08-31T09:04:48.548Z,11.43
2022-08-31T09:06:15.571Z,10.07
2022-08-31T09:07:38.397Z,8.93
2022-08-31T09:09:03.775Z,10.32
2022-08-31T09:10:18.778Z,9.80
2022-08-31T09:11:28.010Z,10.80
2022-08-31T09:12:44.526Z,9.23
2022-08-31T09:13:59.111Z,9.65
2022-08-31T09:15:36.388Z,10.85
2022-08-31T09:16:49.495Z,8.10
2022-08-31T09:18:00.018Z,7.80
2022-08-31T09:19:09.706Z,8.35
2022-08-31T09:20:13.307Z,9.07
2022-08-31T09:21:21.995Z,9.80
2022-08-31T09:22:28.376Z,9.30
2022-08-31T09:23:35.618Z,9.32
2022-08-31T09:24:40.367Z,8.82
2022-08-31T09:25:58.891Z,9.32
2022-08-31T09:27:19.321Z,9.27
2022-08-31T09:28:35.030Z,8.45
2022-08-31T09:29:44.115Z,11.10
2022-08-31T09:30:52.596Z,10.32
2022-08-31T09:32:06.127Z,9.15
2022-08-31T09:33:18.232Z,10.27
2022-08-31T09:34:29.321Z,8.02
2022-08-31T09:35:40.279Z,10.20
2022-08-31T09:36:43.357Z,9.27
2022-08-31T09:37:58.863Z,8.52
2022-08-31T09:39:16.069Z,11.02
2022-08-31T09:40:24.232Z,9.20
2022-08-31T09:41:37.447Z,9.73
2022-08-31T09:42:39.428Z,8.75
2022-08-31T09:43:42.397Z,10.15
2022-08-31T09:44:48.209Z,9.20
2022-08-31T09:45:59.067Z,10.07
2022-08-31T09:47:03.866Z,9.27
2022-08-31T09:48:08.631Z,10.38
2022-08-31T09:49:19.269Z,12.85
2022-08-31T09:50:35.598Z,11.20
2022-08-31T09:51:39.740Z,9.07
2022-08-31T09:53:00.293Z,12.38
2022-08-31T09:54:25.571Z,8.27
2022-08-31T09:55:29.363Z,8.70
2022-08-31T09:56:32.603Z,9.30
2022-08-31T09:57:54.004Z,9.35
2022-08-31T09:59:01.614Z,8.63
2022-08-31T10:00:04.448Z,9.07
2022-08-31T10:01:30.723Z,9.10
2022-08-31T10:02:37.850Z,9.07
2022-08-31T10:03:44.189Z,10.27
2022-08-31T10:04:52.747Z,8.90
2022-08-31T10:05:56.480Z,8.18
2022-08-31T10:07:11.321Z,9.75
2022-08-31T10:08:31.683Z,8.02
2022-08-31T10:09:40.291Z,8.30
2022-08-31T10:10:47.103Z,7.75
2022-08-31T10:11:54.245Z,9.30
2022-08-31T10:13:03.820Z,9.00
2022-08-31T10:14:16.979Z,9.02
2022-08-31T10:15:26.498Z,8.02
2022-08-31T10:16:34.210Z,7.10
2022-08-31T10:17:41.723Z,8.88
2022-08-31T10:18:55.540Z,8.82
2022-08-31T10:20:06.345Z,9.02
2022-08-31T10:21:13.622Z,8.77
2022-08-31T10:22:25.390Z,8.07
2022-08-31T10:23:34.838Z,9.57
2022-08-31T10:24:44.731Z,8.20
2022-08-31T10:25:58.319Z,10.93
2022-08-31T10:27:08.738Z,8.40
2022-08-31T10:28:15.522Z,9.30
2022-08-31T10:29:28.799Z,7.90
2022-08-31T10:30:38.909Z,8.32
2022-08-31T10:31:48.512Z,9.25
2022-08-31T10:32:58.157Z,8.73
2022-08-31T10:34:22.564Z,7.95
2022-08-31T10:35:37.288Z,10.82
2022-08-31T10:36:42.241Z,8.93
2022-08-31T10:37:54.980Z,9.50
2022-08-31T10:38:58.387Z,11.15
2022-08-31T10:40:09.314Z,8.95
2022-08-31T10:41:20.059Z,8.63
2022-08-31T10:42:30.153Z,13.68
2022-08-31T10:43:38.963Z,8.68
2022-08-31T10:44:50.002Z,9.50
2022-08-31T10:45:54.579Z,12.10
2022-08-31T10:47:02.737Z,9.38
2022-08-31T10:48:06.228Z,8.63
2022-08-31T10:49:09.151Z,10.98
2022-08-31T10:50:16.306Z,8.63
2022-08-31T10:51:23.943Z,10.32
2022-08-31T10:52:33.196Z,9.50
2022-08-31T10:53:50.621Z,8.80
2022-08-31T10:55:05.456Z,8.55
2022-08-31T10:56:16.513Z,8.15
2022-08-31T10:57:39.328Z,9.38
2022-08-31T10:58:54.309Z,8.10
2022-08-31T11:00:03.130Z,9.13
2022-08-31T11:01:13.058Z,8.50
2022-08-31T11:02:38.877Z,9.20
2022-08-31T11:04:15.305Z,11.57
2022-08-31T11:05:33.213Z,8.55
2022-08-31T11:06:39.663Z,9.32
2022-08-31T11:07:50.058Z,9.48
2022-08-31T11:09:01.604Z,8.40
2022-08-31T11:10:23.691Z,9.63
2022-08-31T11:11:43.559Z,8.68
2022-08-31T11:12:55.116Z,7.85
2022-08-31T11:14:14.671Z,9.45
2022-08-31T11:15:58.052Z,9.65
2022-08-31T11:17:19.757Z,8.45
2022-08-31T11:18:41.315Z,8.68
2022-08-31T11:20:11.490Z,11.10
2022-08-31T11:21:54.676Z,10.45
2022-08-31T11:23:22.844Z,8.55
2022-08-31T11:24:41.918Z,8.50
2022-08-31T11:26:19.957Z,7.43
2022-08-31T11:27:26.388Z,7.82
2022-08-31T11:28:35.233Z,10.60
2022-08-31T11:29:43.244Z,9.75
2022-08-31T11:30:51.305Z,8.48
2022-08-31T11:31:55.817Z,10.90
2022-08-31T11:33:00.164Z,8.73
2022-08-31T11:34:17.032Z,8.38
2022-08-31T11:36:04.074Z,8.95
2022-08-31T11:37:09.127Z,8.15
2022-08-31T11:38:48.704Z,10.05
2022-08-31T11:39:51.614Z,8.23
2022-08-31T11:40:59.990Z,8.45
2022-08-31T11:42:04.279Z,8.25
2022-08-31T11:43:09.224Z,8.45
2022-08-31T11:44:54.224Z,9.27
2022-08-31T11:45:57.510Z,8.40
2022-08-31T11:47:06.839Z,8.02
2022-08-31T11:48:50.179Z,8.50
2022-08-31T11:49:55.899Z,7.93
2022-08-31T11:51:07.329Z,9.40
2022-08-31T11:52:24.982Z,9.43
2022-08-31T11:53:41.065Z,10.60
2022-08-31T11:55:06.657Z,7.93
2022-08-31T11:56:11.751Z,8.65
2022-08-31T11:57:18.242Z,9.13
2022-08-31T11:58:28.974Z,9.23
2022-08-31T11:59:35.268Z,9.18
2022-08-31T12:00:52.194Z,9.50
2022-08-31T12:01:58.273Z,10.77
2022-08-31T12:03:09.380Z,38.38
2022-08-31T12:04:47.416Z,10.15
2022-08-31T12:05:56.272Z,8.88
2022-08-31T12:07:04.092Z,8.80
2022-08-31T12:08:15.351Z,9.75
2022-08-31T12:09:45.023Z,7.50
2022-08-31T12:10:58.504Z,7.90
2022-08-31T12:12:10.187Z,11.57
2022-08-31T12:13:45.873Z,8.10
2022-08-31T12:14:57.478Z,7.72
2022-08-31T12:16:12.406Z,6.00
2022-08-31T12:17:23.809Z,6.22
2022-08-31T12:18:43.951Z,5.80
2022-08-31T12:20:01.315Z,6.05
2022-08-31T12:21:27.972Z,5.38
2022-08-31T12:23:31.193Z,5.15
2022-08-31T12:24:48.994Z,6.70
2022-08-31T12:26:05.601Z,4.50
2022-08-31T12:27:25.304Z,5.25
2022-08-31T12:28:36.205Z,5.32
2022-08-31T12:29:43.201Z,5.45
2022-08-31T12:30:50.864Z,5.55
2022-08-31T12:32:12.859Z,4.05
2022-08-31T12:33:18.782Z,3.55
2022-08-31T12:34:23.700Z,4.30
2022-08-31T12:35:30.139Z,4.50
2022-08-31T12:36:34.652Z,4.25
2022-08-31T12:37:39.842Z,4.57
2022-08-31T12:38:41.923Z,7.32
2022-08-31T12:39:44.842Z,4.18
2022-08-31T12:40:49.895Z,5.10
2022-08-31T12:41:55.800Z,4.60
2022-08-31T12:43:05.565Z,4.57
2022-08-31T12:44:14.063Z,3.90
2022-08-31T12:45:18.439Z,4.68
2022-08-31T12:46:57.625Z,4.07
2022-08-31T12:48:11.335Z,5.22
2022-08-31T12:49:45.009Z,4.93
2022-08-31T12:50:56.410Z,6.38
2022-08-31T12:52:12.322Z,5.20
2022-08-31T12:53:45.340Z,4.53
2022-08-31T12:55:12.621Z,4.85
2022-08-31T12:56:19.024Z,6.38
2022-08-31T12:57:37.941Z,4.03
2022-08-31T12:58:58.644Z,4.88
2022-08-31T13:00:08.010Z,5.50
2022-08-31T13:01:22.082Z,4.25
2022-08-31T13:02:24.435Z,4.50
2022-08-31T13:03:30.761Z,3.08
2022-08-31T13:04:33.753Z,3.20
2022-08-31T13:05:38.838Z,3.53
2022-08-31T13:06:41.960Z,3.58
2022-08-31T13:07:44.942Z,3.72
2022-08-31T13:08:50.132Z,3.65
2022-08-31T13:10:06.127Z,3.38
2022-08-31T13:11:25.537Z,3.13
2022-08-31T13:12:35.706Z,3.25
2022-08-31T13:13:38.836Z,3.38
2022-08-31T13:14:43.392Z,2.72
2022-08-31T13:15:46.365Z,4.38
2022-08-31T13:16:52.100Z,5.22
2022-08-31T13:17:55.141Z,3.20
2022-08-31T13:19:03.048Z,2.70
2022-08-31T13:20:07.880Z,3.17
2022-08-31T13:21:11.038Z,3.20
2022-08-31T13:22:17.251Z,3.47
2022-08-31T13:23:27.169Z,3.78
2022-08-31T13:24:32.211Z,2.95
2022-08-31T13:25:36.867Z,3.38
2022-08-31T13:26:39.849Z,2.80
2022-08-31T13:27:48.065Z,3.30
2022-08-31T13:28:52.733Z,2.63
2022-08-31T13:30:12.810Z,2.72
2022-08-31T13:31:25.755Z,2.83
2022-08-31T13:32:32.780Z,3.22
2022-08-31T13:33:40.229Z,6.47
2022-08-31T13:34:42.240Z,2.75
2022-08-31T13:35:50.702Z,2.90
2022-08-31T13:36:59.762Z,3.25
2022-08-31T13:38:04.267Z,3.60
2022-08-31T13:39:16.347Z,3.20
2022-08-31T13:40:24.794Z,2.72
2022-08-31T13:41:30.830Z,6.50
2022-08-31T13:42:41.554Z,3.20
2022-08-31T13:43:52.143Z,3.03
2022-08-31T13:44:58.208Z,7.65
2022-08-31T13:46:02.369Z,3.35
2022-08-31T13:47:13.052Z,3.42
2022-08-31T13:48:27.532Z,3.67
2022-08-31T13:49:35.766Z,3.45
2022-08-31T13:50:52.354Z,3.80
2022-08-31T13:51:56.356Z,3.10
2022-08-31T13:53:25.532Z,3.58
2022-08-31T13:54:29.189Z,3.53
2022-08-31T13:55:35.748Z,3.75
2022-08-31T13:56:58.839Z,4.35
2022-08-31T13:58:03.721Z,3.90
2022-08-31T13:59:25.216Z,3.90
2022-08-31T14:00:36.452Z,5.53
2022-08-31T14:01:39.636Z,4.00
2022-08-31T14:02:42.722Z,4.00
2022-08-31T14:03:53.461Z,4.28
2022-08-31T14:05:05.093Z,3.85
2022-08-31T14:06:23.853Z,4.20
2022-08-31T14:07:30.407Z,3.85
2022-08-31T14:08:33.816Z,4.03
2022-08-31T14:09:43.342Z,4.78
2022-08-31T14:10:49.728Z,5.47
2022-08-31T14:11:55.588Z,6.05
2022-08-31T14:13:01.371Z,5.13
2022-08-31T14:14:07.260Z,5.57
2022-08-31T14:15:28.437Z,5.50
2022-08-31T14:16:35.017Z,5.93
2022-08-31T14:17:42.536Z,4.75
2022-08-31T14:18:48.083Z,6.97
2022-08-31T14:19:51.484Z,6.00
2022-08-31T14:21:21.837Z,5.10
2022-08-31T14:22:30.084Z,6.00
2022-08-31T14:23:35.892Z,5.85
2022-08-31T14:24:37.859Z,6.25
2022-08-31T14:25:40.789Z,5.68
2022-08-31T14:26:44.879Z,6.18
2022-08-31T14:27:46.805Z,6.80
2022-08-31T14:28:53.195Z,6.95
2022-08-31T14:29:58.263Z,5.85
2022-08-31T14:31:12.265Z,6.25
2022-08-31T14:32:15.474Z,5.28
2022-08-31T14:33:17.704Z,6.13
2022-08-31T14:34:23.843Z,5.40
2022-08-31T14:35:27.134Z,5.65
2022-08-31T14:36:34.031Z,6.35
2022-08-31T14:37:38.158Z,6.63
2022-08-31T14:38:41.411Z,6.88
2022-08-31T14:39:47.243Z,7.20
2022-08-31T14:40:50.063Z,6.82
2022-08-31T14:41:54.621Z,7.30
2022-08-31T14:42:56.538Z,5.95
2022-08-31T14:44:06.893Z,5.57
2022-08-31T14:45:18.430Z,6.30
2022-08-31T14:46:28.242Z,5.95
2022-08-31T14:47:36.141Z,6.22
2022-08-31T14:48:38.094Z,7.40
2022-08-31T14:49:45.460Z,6.30
2022-08-31T14:50:48.837Z,6.63
2022-08-31T14:51:52.240Z,6.65
2022-08-31T14:52:55.330Z,6.57
2022-08-31T14:53:59.016Z,5.45
2022-08-31T14:55:02.556Z,6.88
2022-08-31T14:56:08.670Z,6.28
2022-08-31T14:57:14.841Z,6.53
2022-08-31T14:58:17.396Z,6.03
2022-08-31T14:59:21.992Z,8.68
2022-08-31T15:00:26.127Z,6.32
2022-08-31T15:01:29.888Z,6.80
2022-08-31T15:02:34.425Z,6.20
2022-08-31T15:03:40.219Z,6.38
2022-08-31T15:04:45.639Z,6.53
2022-08-31T15:05:51.170Z,6.03
2022-08-31T15:06:58.140Z,6.18
2022-08-31T15:08:00.192Z,5.45
2022-08-31T15:09:04.161Z,6.20
2022-08-31T15:10:10.379Z,7.03
2022-08-31T15:11:12.555Z,5.70
2022-08-31T15:12:16.559Z,6.25
2022-08-31T15:13:18.450Z,7.38
2022-08-31T15:14:22.303Z,7.25
2022-08-31T15:15:24.253Z,6.20
2022-08-31T15:16:27.738Z,6.25
2022-08-31T15:17:34.093Z,6.25